Time;durP1;ratioP1;P1;durP2;ratioP2;P2;SDS_P1;SDS_P2;PMS_P1;PMS_P2;Temp;Humidity;BMP_temperature;BMP_pressure;BME280_temperature;BME280_humidity;BME280_pressure;Samples;Min_cycle;Max_cycle;Signal;HPM_P1;HPM_P2
2021/09/30 00:00:00;;;;;;;3.30;0.70;;;;;;;13.00;76.83;97266.00;5050151;28;20245;-72
2021/09/30 00:02:26;;;;;;;2.72;0.85;;;;;;;13.13;76.26;97266.31;5050183;28;20217;-72
2021/09/30 00:04:53;;;;;;;4.27;2.03;;;;;;;13.17;76.62;97270.28;5050234;28;20200;-72
2021/09/30 00:07:20;;;;;;;5.63;0.90;;;;;;;13.24;76.40;97273.88;5049284;28;20270;-72
2021/09/30 00:09:47;;;;;;;2.53;0.87;;;;;;;13.23;76.20;97282.84;5050192;28;20231;-72
2021/09/30 00:12:16;;;;;;;4.20;0.70;;;;;;;13.10;76.36;97274.59;5049983;28;20217;-72
2021/09/30 00:14:51;;;;;;;4.20;0.90;;;;;;;13.35;76.15;97268.25;5049785;28;20255;-72
2021/09/30 00:17:28;;;;;;;2.57;0.80;;;;;;;13.30;76.34;97273.22;5049697;28;20205;-73
2021/09/30 00:33:47;;;;;;;2.57;0.80;;;;;;;12.89;77.70;97290.13;5049043;28;20877;-71
2021/09/30 00:39:36;;;;;;;4.20;1.30;;;;;;;12.97;77.23;97287.47;5049047;28;20291;-72
2021/09/30 00:41:52;;;;;;;4.97;0.90;;;;;;;12.75;77.77;97284.66;5049177;28;20586;-72
2021/09/30 00:47:07;;;;;;;7.57;0.77;;;;;;;12.83;77.61;97282.84;5016254;28;20665;-73
2021/09/30 00:49:43;;;;;;;2.13;0.80;;;;;;;12.74;77.82;97281.19;5049432;28;20193;-72
2021/09/30 00:52:15;;;;;;;6.33;0.80;;;;;;;12.55;78.34;97278.88;5049242;28;20311;-72
2021/09/30 00:54:53;;;;;;;1.63;0.67;;;;;;;12.35;79.03;97279.34;5049079;28;20221;-72
2021/09/30 01:23:53;;;;;;;4.80;0.97;;;;;;;12.76;80.97;97297.72;5048769;28;20279;-72
2021/09/30 02:19:10;;;;;;;4.13;1.17;;;;;;;12.53;84.18;97327.63;5048029;28;20216;-72
2021/09/30 02:25:05;;;;;;;6.77;1.40;;;;;;;12.42;84.22;97328.75;5047583;28;20194;-72
2021/09/30 02:39:14;;;;;;;4.03;1.23;;;;;;;12.38;83.67;97323.94;5047588;28;20216;-71
2021/09/30 02:58:32;;;;;;;4.97;2.00;;;;;;;12.09;85.02;97339.38;5051242;28;20247;-73
2021/09/30 03:01:03;;;;;;;5.67;1.30;;;;;;;12.03;85.26;97344.47;5051322;28;20213;-72
2021/09/30 03:03:34;;;;;;;2.80;1.30;;;;;;;12.02;84.96;97353.41;5051057;28;20217;-72
2021/09/30 03:06:02;;;;;;;2.43;1.40;;;;;;;11.95;85.91;97347.91;5050672;28;20572;-72
2021/09/30 03:08:30;;;;;;;3.27;1.10;;;;;;;12.02;85.39;97348.94;5050793;28;20579;-72
2021/09/30 03:11:01;;;;;;;5.33;1.40;;;;;;;12.12;85.46;97347.00;5050831;28;20287;-72
2021/09/30 03:13:30;;;;;;;2.37;1.47;;;;;;;12.18;85.02;97341.03;5050891;28;20221;-72
2021/09/30 03:15:59;;;;;;;2.13;1.27;;;;;;;11.97;84.73;97347.75;5050654;28;20207;-71
2021/09/30 03:18:31;;;;;;;4.73;1.43;;;;;;;11.93;85.07;97355.16;5050832;28;20212;-71
2021/09/30 03:23:45;;;;;;;6.03;1.63;;;;;;;12.12;84.38;97359.34;5050808;28;20347;-72
2021/09/30 03:26:12;;;;;;;2.97;2.33;;;;;;;12.02;84.11;97361.31;5050376;28;20578;-73
2021/09/30 03:28:39;;;;;;;5.00;1.63;;;;;;;12.02;84.40;97374.53;5050548;28;20198;-73
2021/09/30 03:31:06;;;;;;;4.77;2.90;;;;;;;12.01;84.31;97370.22;5050384;28;20197;-72
2021/09/30 03:33:34;;;;;;;7.57;2.93;;;;;;;12.09;83.71;97362.31;5050034;28;20236;-72
2021/09/30 03:36:02;;;;;;;5.63;2.70;;;;;;;11.68;85.07;97376.31;5050300;28;20635;-72
2021/09/30 03:38:29;;;;;;;3.73;2.37;;;;;;;11.66;85.13;97373.03;5050252;28;20284;-72
2021/09/30 03:40:56;;;;;;;3.67;2.00;;;;;;;11.76;85.18;97368.44;5050389;28;20208;-72
2021/09/30 03:43:23;;;;;;;5.13;1.47;;;;;;;11.64;84.70;97374.97;5049237;28;20221;-72
2021/09/30 03:45:49;;;;;;;5.97;1.50;;;;;;;11.62;85.04;97376.94;5049581;28;20213;-72
2021/09/30 03:48:17;;;;;;;3.93;1.50;;;;;;;11.74;84.05;97378.34;5050365;28;20208;-72
2021/09/30 03:50:49;;;;;;;5.23;1.20;;;;;;;11.66;83.37;97386.22;5050415;28;20205;-72
2021/09/30 03:53:19;;;;;;;3.70;1.40;;;;;;;11.57;83.34;97379.25;5050042;28;20635;-72
2021/09/30 04:01:21;;;;;;;4.43;1.97;;;;;;;11.46;83.83;97386.56;5049155;28;20207;-72
2021/09/30 04:03:47;;;;;;;10.13;2.50;;;;;;;11.40;84.51;97387.97;5049534;28;20585;-72
2021/09/30 04:06:14;;;;;;;5.17;2.10;;;;;;;11.18;85.92;97383.19;5049664;28;20572;-71
2021/09/30 04:08:41;;;;;;;5.40;2.33;;;;;;;11.25;84.63;97386.91;5049713;28;20208;-71
2021/09/30 04:11:07;;;;;;;8.37;2.03;;;;;;;11.26;83.49;97385.88;5049821;28;20205;-71
2021/09/30 04:13:34;;;;;;;7.03;2.07;;;;;;;11.16;84.34;97379.91;5049878;28;20225;-71
2021/09/30 04:16:02;;;;;;;3.33;1.90;;;;;;;11.33;84.45;97384.31;5049543;28;20201;-71
2021/09/30 04:18:28;;;;;;;3.30;1.67;;;;;;;11.12;84.67;97377.69;5049566;28;20676;-71
2021/09/30 04:20:55;;;;;;;4.07;1.90;;;;;;;11.11;84.67;97382.16;5049701;28;20209;-71
2021/09/30 04:23:21;;;;;;;5.57;2.00;;;;;;;11.13;84.00;97385.47;5049331;28;20704;-71
2021/09/30 04:25:48;;;;;;;7.93;2.77;;;;;;;11.06;84.63;97392.34;5049452;28;20759;-71
2021/09/30 04:28:15;;;;;;;6.40;2.20;;;;;;;11.03;84.01;97384.72;5049431;28;20252;-71
2021/09/30 04:30:41;;;;;;;5.30;2.00;;;;;;;11.11;83.70;97391.88;5049433;28;20212;-73
2021/09/30 04:33:09;;;;;;;10.97;2.43;;;;;;;11.24;83.18;97393.16;5048620;28;20712;-72
2021/09/30 04:35:36;;;;;;;6.10;1.83;;;;;;;11.03;83.35;97392.63;5049105;28;20201;-72
2021/09/30 04:38:02;;;;;;;4.80;1.97;;;;;;;10.91;84.28;97390.38;5049257;28;20201;-71
2021/09/30 04:40:29;;;;;;;3.80;1.90;;;;;;;10.92;84.28;97396.47;5049143;28;20206;-71
2021/09/30 04:42:55;;;;;;;4.33;1.80;;;;;;;10.77;83.85;97401.47;5049424;28;20229;-71
2021/09/30 04:45:22;;;;;;;6.77;2.07;;;;;;;10.68;84.24;97401.50;5048366;28;20224;-71
2021/09/30 04:47:48;;;;;;;6.40;1.90;;;;;;;10.70;83.94;97399.56;5049053;28;20215;-71
2021/09/30 04:50:16;;;;;;;4.27;1.87;;;;;;;10.77;83.56;97404.09;5049042;28;20205;-72
2021/09/30 04:52:43;;;;;;;4.00;1.93;;;;;;;10.70;83.27;97405.66;5049125;28;20232;-72
2021/09/30 04:55:10;;;;;;;3.93;1.93;;;;;;;10.68;83.69;97405.00;5048830;28;20224;-72
2021/09/30 04:57:36;;;;;;;4.57;1.90;;;;;;;10.42;84.01;97405.84;5048895;28;20193;-72
2021/09/30 05:00:04;;;;;;;4.93;1.73;;;;;;;10.55;83.20;97408.97;5049040;28;20295;-72
2021/09/30 05:02:31;;;;;;;4.50;2.00;;;;;;;10.35;83.13;97408.25;5048604;28;20220;-72
2021/09/30 05:04:57;;;;;;;4.33;1.90;;;;;;;10.43;81.91;97407.50;5048740;28;20688;-72
2021/09/30 05:07:25;;;;;;;4.83;1.73;;;;;;;10.48;82.62;97407.91;5048463;28;20201;-73
2021/09/30 05:09:52;;;;;;;3.40;1.77;;;;;;;10.33;83.07;97402.31;5048813;28;20205;-72
2021/09/30 05:12:21;;;;;;;5.43;1.70;;;;;;;10.31;82.66;97405.22;5048737;28;20232;-72
2021/09/30 05:14:48;;;;;;;4.63;1.63;;;;;;;10.19;83.04;97409.84;5048430;28;20225;-72
2021/09/30 05:17:14;;;;;;;3.53;1.50;;;;;;;10.03;82.91;97404.41;5048256;28;20294;-72
2021/09/30 05:19:41;;;;;;;3.43;1.30;;;;;;;10.26;81.30;97408.31;5048569;28;20666;-72
2021/09/30 05:22:07;;;;;;;3.00;1.43;;;;;;;10.14;82.14;97408.66;5048767;28;20268;-72
2021/09/30 05:24:35;;;;;;;6.33;1.50;;;;;;;10.35;82.28;97415.34;5048685;28;20204;-72
2021/09/30 05:27:02;;;;;;;4.87;1.80;;;;;;;10.14;82.17;97414.72;5048095;28;20212;-72
2021/09/30 05:29:28;;;;;;;2.40;1.33;;;;;;;9.81;82.70;97412.66;5048436;28;20207;-72
2021/09/30 05:31:55;;;;;;;8.67;1.50;;;;;;;9.83;82.64;97413.31;5048336;28;20205;-72
2021/09/30 05:34:21;;;;;;;5.53;1.80;;;;;;;9.87;83.15;97417.31;5048401;28;20221;-72
2021/09/30 05:36:48;;;;;;;6.50;1.90;;;;;;;9.99;83.71;97416.22;5048387;28;20201;-72
2021/09/30 05:39:14;;;;;;;6.53;1.97;;;;;;;10.10;83.44;97410.75;5048494;28;20665;-71
2021/09/30 05:41:44;;;;;;;5.60;2.07;;;;;;;10.40;83.63;97415.72;5048677;28;20220;-72
2021/09/30 05:44:10;;;;;;;7.27;2.30;;;;;;;10.21;83.45;97415.81;5047701;28;20197;-72
2021/09/30 05:46:42;;;;;;;2.70;1.80;;;;;;;10.00;83.40;97420.47;5048166;28;20240;-72
2021/09/30 05:49:09;;;;;;;3.47;1.53;;;;;;;9.97;82.92;97430.50;5048163;28;20574;-72
2021/09/30 05:51:36;;;;;;;13.17;1.80;;;;;;;10.14;82.25;97429.72;5048670;28;20208;-72
2021/09/30 05:54:03;;;;;;;3.50;1.53;;;;;;;10.17;81.78;97421.50;5048017;28;20780;-72
2021/09/30 05:56:29;;;;;;;3.83;1.70;;;;;;;10.31;81.89;97424.53;5048490;28;20197;-72
2021/09/30 05:58:57;;;;;;;4.80;1.67;;;;;;;10.45;82.39;97424.84;5048352;28;20229;-72
2021/09/30 06:05:53;;;;;;;7.50;2.00;;;;;;;10.38;82.17;97418.47;5032096;28;20220;-72
2021/09/30 06:10:22;;;;;;;6.53;2.53;;;;;;;10.50;83.35;97421.75;5048371;28;20262;-72
2021/09/30 06:12:52;;;;;;;6.97;2.90;;;;;;;10.37;83.97;97421.28;5048449;28;20220;-72
2021/09/30 06:15:26;;;;;;;3.20;2.10;;;;;;;10.69;84.53;97419.84;5048042;28;20225;-72
2021/09/30 06:17:55;;;;;;;10.03;2.17;;;;;;;10.64;84.25;97424.72;5048010;28;20738;-71
2021/09/30 06:20:22;;;;;;;6.67;2.10;;;;;;;10.57;84.68;97418.38;5048324;28;20251;-71
2021/09/30 06:22:48;;;;;;;6.20;1.73;;;;;;;10.75;84.28;97419.22;5048124;28;20229;-70
2021/09/30 06:25:15;;;;;;;7.13;1.90;;;;;;;10.73;85.49;97417.72;5048091;28;20209;-71
2021/09/30 06:27:42;;;;;;;7.23;1.87;;;;;;;10.86;85.45;97429.56;5051768;28;20213;-71
2021/09/30 06:30:10;;;;;;;6.17;1.90;;;;;;;10.96;85.23;97431.16;5051813;28;20205;-71
2021/09/30 06:32:38;;;;;;;8.20;2.20;;;;;;;11.07;85.32;97440.63;5051900;28;20259;-72
2021/09/30 06:35:05;;;;;;;4.10;1.90;;;;;;;11.09;84.70;97434.22;5051820;28;20220;-72
2021/09/30 06:37:32;;;;;;;3.63;1.90;;;;;;;11.14;84.53;97444.34;5051061;28;20665;-72
2021/09/30 06:39:59;;;;;;;3.27;1.80;;;;;;;11.19;85.29;97448.19;5051725;28;20685;-72
2021/09/30 06:42:25;;;;;;;4.17;1.70;;;;;;;11.29;84.79;97441.00;5051528;28;20696;-72
2021/09/30 06:44:53;;;;;;;8.20;1.77;;;;;;;11.17;84.93;97442.22;5051488;28;20205;-72
2021/09/30 06:47:19;;;;;;;4.47;1.50;;;;;;;11.16;84.77;97443.22;5051406;28;20236;-72
2021/09/30 06:49:47;;;;;;;2.60;1.70;;;;;;;11.55;84.68;97444.53;5051607;28;20201;-72
2021/09/30 06:52:13;;;;;;;4.57;1.73;;;;;;;11.29;85.13;97445.44;5051458;28;20225;-72
2021/09/30 06:54:40;;;;;;;3.10;1.80;;;;;;;11.41;84.49;97442.41;5051447;28;20240;-72
2021/09/30 06:57:06;;;;;;;5.03;1.30;;;;;;;11.50;84.49;97456.56;5051026;28;20816;-72
2021/09/30 06:59:35;;;;;;;1.97;1.40;;;;;;;11.37;83.99;97451.63;5051227;28;20206;-72
2021/09/30 07:02:06;;;;;;;5.93;1.57;;;;;;;11.57;83.68;97448.69;5051419;28;20201;-72
2021/09/30 07:04:33;;;;;;;8.00;1.53;;;;;;;11.41;82.89;97452.16;5051469;28;20251;-73
2021/09/30 07:07:03;;;;;;;4.77;1.20;;;;;;;11.49;83.47;97453.03;5051114;28;20205;-72
2021/09/30 07:09:30;;;;;;;4.40;1.40;;;;;;;11.70;83.02;97458.84;5051141;28;20209;-72
2021/09/30 07:11:57;;;;;;;3.00;1.27;;;;;;;11.61;82.52;97465.06;5050990;28;20197;-72
2021/09/30 07:14:24;;;;;;;2.47;1.17;;;;;;;11.39;82.33;97454.13;5051206;28;20243;-72
2021/09/30 07:16:50;;;;;;;1.97;1.33;;;;;;;11.49;83.11;97455.69;5050845;28;21171;-72
2021/09/30 07:19:17;;;;;;;4.63;1.23;;;;;;;11.49;83.84;97466.25;5051036;28;20198;-72
2021/09/30 07:21:44;;;;;;;6.27;1.43;;;;;;;11.69;82.34;97462.47;5050965;28;20201;-72
2021/09/30 07:24:12;;;;;;;3.87;1.40;;;;;;;11.94;81.76;97459.00;5050745;28;20209;-72
2021/09/30 07:26:40;;;;;;;5.00;1.43;;;;;;;11.93;81.11;97454.72;5050606;28;20205;-72
2021/09/30 07:29:06;;;;;;;1.93;1.30;;;;;;;11.71;82.09;97456.06;5050946;28;20228;-72
2021/09/30 07:31:33;;;;;;;6.00;1.57;;;;;;;11.97;81.23;97469.28;5050900;28;20201;-72
2021/09/30 07:34:00;;;;;;;3.40;1.40;;;;;;;12.10;80.47;97461.75;5050552;28;20229;-72
2021/09/30 07:36:26;;;;;;;2.50;1.47;;;;;;;12.06;80.84;97465.69;5050397;28;20204;-72
2021/09/30 07:38:53;;;;;;;4.40;1.30;;;;;;;12.09;80.54;97466.19;5049767;28;20736;-72
2021/09/30 07:41:21;;;;;;;2.17;1.40;;;;;;;12.26;80.45;97468.78;5050708;28;20205;-71
2021/09/30 07:43:48;;;;;;;1.67;1.40;;;;;;;12.23;80.68;97460.31;5049810;28;20225;-71
2021/09/30 07:46:14;;;;;;;4.97;1.40;;;;;;;12.31;79.77;97461.19;5050181;28;20205;-72
2021/09/30 07:48:41;;;;;;;4.93;1.10;;;;;;;12.64;78.93;97465.66;5050523;28;20782;-72
2021/09/30 07:51:07;;;;;;;1.87;1.07;;;;;;;12.81;78.53;97459.41;5050497;28;20205;-72
2021/09/30 07:53:34;;;;;;;4.13;1.53;;;;;;;12.76;76.91;97472.28;5050113;28;20217;-71
2021/09/30 07:56:00;;;;;;;5.63;1.50;;;;;;;12.88;76.66;97460.44;5050049;28;20228;-71
2021/09/30 07:58:28;;;;;;;1.80;1.30;;;;;;;13.10;77.65;97462.50;5050096;28;20216;-72
2021/09/30 08:00:54;;;;;;;2.40;1.42;;;;;;;12.80;77.35;97471.81;5050359;28;20213;-72
2021/09/30 08:03:21;;;;;;;4.20;1.40;;;;;;;13.11;78.16;97467.63;5050107;28;20225;-72
2021/09/30 08:05:47;;;;;;;3.57;1.13;;;;;;;13.34;76.94;97463.34;5049953;28;20202;-72
2021/09/30 08:08:14;;;;;;;4.67;1.53;;;;;;;13.36;75.47;97460.53;5049947;28;20201;-71
2021/09/30 08:10:41;;;;;;;5.00;1.37;;;;;;;13.28;75.29;97468.47;5050210;28;20299;-71
2021/09/30 08:13:08;;;;;;;2.50;1.17;;;;;;;13.22;75.34;97469.94;5049783;28;20237;-72
2021/09/30 08:15:36;;;;;;;3.28;1.20;;;;;;;13.58;75.50;97469.47;5049535;28;20221;-72
2021/09/30 08:18:03;;;;;;;3.03;1.10;;;;;;;13.37;72.01;97468.31;5049808;28;20205;-72
2021/09/30 08:20:30;;;;;;;4.23;1.07;;;;;;;13.26;70.73;97468.63;5049627;28;20677;-72
2021/09/30 08:22:57;;;;;;;4.43;1.00;;;;;;;13.36;71.45;97471.13;5049623;28;20735;-71
2021/09/30 08:25:24;;;;;;;5.57;1.10;;;;;;;13.59;71.56;97468.50;5049403;28;20204;-72
2021/09/30 08:27:51;;;;;;;5.27;1.33;;;;;;;13.64;71.20;97471.44;5049392;28;20220;-72
2021/09/30 08:30:17;;;;;;;7.97;1.20;;;;;;;13.76;70.27;97474.59;5049568;28;20209;-72
2021/09/30 08:32:45;;;;;;;3.30;1.00;;;;;;;13.83;68.70;97476.41;5049127;28;20241;-72
2021/09/30 08:35:12;;;;;;;4.23;1.30;;;;;;;13.69;69.13;97469.13;5049438;28;20217;-72
2021/09/30 08:37:39;;;;;;;2.10;1.15;;;;;;;13.67;70.08;97470.28;5049166;28;20212;-72
2021/09/30 08:40:07;;;;;;;1.40;1.08;;;;;;;13.90;70.66;97465.97;5049661;28;20205;-72
2021/09/30 08:42:33;;;;;;;3.67;1.05;;;;;;;13.89;67.17;97465.16;5049499;28;20228;-72
2021/09/30 08:45:00;;;;;;;1.60;0.93;;;;;;;13.98;64.27;97461.50;5048641;28;20205;-72
2021/09/30 08:47:27;;;;;;;3.30;1.10;;;;;;;14.22;64.96;97458.84;5049029;28;20198;-72
2021/09/30 08:49:55;;;;;;;4.00;0.90;;;;;;;14.41;64.67;97451.31;5049150;28;20212;-72
2021/09/30 08:52:21;;;;;;;3.13;1.00;;;;;;;14.24;64.56;97454.19;5049108;28;20221;-72
2021/09/30 08:54:48;;;;;;;2.90;0.80;;;;;;;14.12;61.77;97458.19;5049204;28;20217;-72
2021/09/30 08:57:15;;;;;;;2.72;0.82;;;;;;;14.63;61.57;97449.75;5048923;28;20205;-72
2021/09/30 08:59:41;;;;;;;5.85;0.93;;;;;;;14.52;60.91;97456.22;5049187;28;20220;-72
2021/09/30 09:02:11;;;;;;;2.97;0.80;;;;;;;14.96;63.17;97447.56;5048931;28;20728;-73
2021/09/30 09:04:50;;;;;;;5.03;1.10;;;;;;;14.99;61.89;97439.25;5048947;28;20197;-73
2021/09/30 09:07:23;;;;;;;1.50;0.63;;;;;;;15.04;61.45;97442.19;5048894;28;20201;-71
2021/09/30 09:09:50;;;;;;;2.03;0.88;;;;;;;14.66;62.15;97445.75;5049192;28;20227;-71
2021/09/30 09:12:17;;;;;;;2.10;1.08;;;;;;;14.83;61.43;97442.00;5048901;28;20220;-72
2021/09/30 09:14:44;;;;;;;4.15;1.00;;;;;;;14.49;61.51;97438.00;5048665;28;20216;-72
2021/09/30 09:17:12;;;;;;;6.18;1.08;;;;;;;14.99;63.11;97436.59;5048719;28;20204;-72
2021/09/30 09:19:41;;;;;;;4.65;1.05;;;;;;;15.08;64.37;97435.53;5048764;28;20255;-72
2021/09/30 09:22:12;;;;;;;3.60;0.70;;;;;;;15.57;59.98;97439.53;5048876;28;20213;-72
2021/09/30 09:25:03;;;;;;;5.88;0.80;;;;;;;15.75;58.97;97426.75;5048906;28;20220;-73
2021/09/30 09:27:51;;;;;;;1.65;0.70;;;;;;;15.90;56.92;97437.22;5048082;28;20691;-73
2021/09/30 09:30:37;;;;;;;1.60;0.70;;;;;;;15.83;55.89;97432.81;5048670;28;20439;-72
2021/09/30 09:33:13;;;;;;;1.23;0.70;;;;;;;15.46;56.94;97434.63;5048418;28;20601;-72
2021/09/30 09:35:53;;;;;;;3.42;0.60;;;;;;;15.59;56.74;97435.72;5048223;28;20228;-73
2021/09/30 09:38:21;;;;;;;2.83;0.60;;;;;;;15.34;53.42;97436.06;5048471;28;20205;-73
2021/09/30 09:40:52;;;;;;;3.15;0.70;;;;;;;15.79;55.24;97425.41;5048603;28;20197;-73
2021/09/30 09:43:31;;;;;;;3.35;0.80;;;;;;;16.38;53.57;97420.81;5047727;28;20233;-73
2021/09/30 09:45:59;;;;;;;3.08;0.70;;;;;;;15.72;55.34;97427.09;5048112;28;20239;-73
2021/09/30 09:48:25;;;;;;;3.85;0.90;;;;;;;16.05;55.47;97427.44;5048623;28;20544;-73
2021/09/30 09:50:53;;;;;;;1.55;0.70;;;;;;;16.00;50.78;97423.69;5048518;28;20201;-73
2021/09/30 12:16:34;;;;;;;5.30;0.90;;;;;;;16.10;53.19;97278.81;5094848;27;20491;-73
2021/09/30 12:35:00;;;;;;;3.33;0.75;;;;;;;16.72;50.89;97277.28;5095522;27;20571;-73
2021/09/30 12:37:27;;;;;;;0.80;0.40;;;;;;;16.75;46.83;97271.56;5093723;28;20199;-73
2021/09/30 12:40:03;;;;;;;2.03;0.70;;;;;;;17.05;47.13;97273.09;5093937;28;20288;-73
2021/09/30 12:42:30;;;;;;;7.97;0.75;;;;;;;16.96;47.59;97274.25;5094247;28;20237;-73
2021/09/30 12:44:57;;;;;;;1.55;0.60;;;;;;;17.17;49.04;97270.53;5088639;28;20583;-73
2021/09/30 12:47:38;;;;;;;5.35;1.00;;;;;;;17.27;47.85;97268.41;5091633;28;20210;-73
2021/09/30 12:50:09;;;;;;;2.42;0.65;;;;;;;17.21;49.47;97263.81;5093474;28;20207;-73
2021/09/30 12:52:36;;;;;;;2.25;0.60;;;;;;;17.01;43.95;97256.69;5094552;28;20269;-73
2021/09/30 12:55:05;;;;;;;1.75;0.57;;;;;;;17.38;46.00;97254.53;5093771;28;21015;-73
2021/09/30 12:57:33;;;;;;;1.85;0.70;;;;;;;17.56;47.25;97251.38;5092419;28;20211;-73
2021/09/30 13:00:18;;;;;;;3.20;0.70;;;;;;;17.57;44.19;97240.53;5093329;28;20670;-73
2021/09/30 13:02:46;;;;;;;3.15;0.80;;;;;;;17.23;45.82;97229.81;5093938;28;20215;-73
2021/09/30 13:05:15;;;;;;;6.03;0.70;;;;;;;17.41;46.13;97230.19;5094173;28;20205;-73
2021/09/30 13:07:51;;;;;;;3.58;0.60;;;;;;;17.38;44.30;97227.09;5092563;28;21109;-73
2021/09/30 13:10:19;;;;;;;2.15;0.70;;;;;;;17.57;43.38;97232.53;5093916;28;20211;-73
2021/09/30 13:13:14;;;;;;;2.60;0.63;;;;;;;17.21;42.63;97215.84;5093953;28;20226;-73
2021/09/30 13:15:42;;;;;;;1.98;0.50;;;;;;;16.91;41.45;97226.06;5056806;28;20195;-73
2021/09/30 13:18:11;;;;;;;1.00;0.57;;;;;;;16.94;43.02;97223.00;5093432;28;20211;-72
2021/09/30 13:20:40;;;;;;;2.45;0.50;;;;;;;17.48;45.03;97215.03;5093310;28;20203;-74
2021/09/30 13:23:07;;;;;;;1.33;0.60;;;;;;;17.11;45.27;97212.72;5092747;28;20713;-74
2021/09/30 13:25:33;;;;;;;6.75;0.80;;;;;;;17.03;47.34;97221.84;5092813;28;20206;-73
2021/09/30 13:28:00;;;;;;;1.15;0.50;;;;;;;16.83;44.65;97219.03;5092423;28;20200;-73
2021/09/30 13:30:30;;;;;;;1.20;0.60;;;;;;;16.98;45.03;97219.78;5092254;28;20201;-73
2021/09/30 13:32:59;;;;;;;4.00;0.80;;;;;;;17.12;46.00;97211.69;5096437;28;20234;-73
2021/09/30 13:35:28;;;;;;;2.63;0.38;;;;;;;17.01;45.50;97221.25;5112560;27;20599;-73
2021/09/30 13:37:57;;;;;;;2.70;0.75;;;;;;;17.00;44.07;97216.94;5112888;28;20564;-73
2021/09/30 13:40:25;;;;;;;3.67;0.75;;;;;;;16.87;44.86;97216.81;5113351;28;20198;-73
2021/09/30 13:42:52;;;;;;;1.65;0.60;;;;;;;16.88;45.80;97213.13;5112721;27;20597;-73
2021/09/30 13:45:21;;;;;;;1.27;0.60;;;;;;;17.51;47.57;97211.97;5102876;28;20704;-73
2021/09/30 13:47:48;;;;;;;2.53;0.88;;;;;;;17.52;45.99;97196.84;5098515;28;20207;-73
2021/09/30 13:50:17;;;;;;;4.05;0.60;;;;;;;17.18;43.46;97194.94;5099264;28;20674;-73
2021/09/30 13:52:46;;;;;;;3.75;0.52;;;;;;;17.10;44.99;97192.41;5099230;28;20246;-73
2021/09/30 13:55:15;;;;;;;3.72;0.90;;;;;;;17.29;50.14;97190.94;5099099;28;20227;-73
2021/09/30 13:57:42;;;;;;;3.28;0.70;;;;;;;17.59;48.06;97179.00;5097671;28;20199;-74
2021/09/30 14:00:11;;;;;;;3.65;1.15;;;;;;;17.55;47.52;97181.25;5099643;28;20210;-74
2021/09/30 14:02:39;;;;;;;4.47;0.70;;;;;;;17.75;46.58;97176.84;5099244;28;20225;-74
2021/09/30 14:05:08;;;;;;;2.38;0.60;;;;;;;17.61;45.44;97171.66;5099718;28;20731;-73
2021/09/30 14:07:35;;;;;;;4.32;0.63;;;;;;;18.00;44.75;97164.66;5098811;28;20206;-74
2021/09/30 14:10:04;;;;;;;15.55;2.50;;;;;;;17.90;47.26;97170.34;5099984;28;20268;-73
2021/09/30 14:12:32;;;;;;;10.60;1.33;;;;;;;18.34;45.41;97171.53;5098834;28;20229;-73
2021/09/30 14:14:59;;;;;;;3.03;0.70;;;;;;;18.31;44.35;97168.44;5098593;28;20258;-73
2021/09/30 14:17:26;;;;;;;4.15;0.70;;;;;;;18.25;43.45;97168.44;5098789;28;20199;-73
2021/09/30 14:19:52;;;;;;;0.88;0.60;;;;;;;18.30;45.47;97161.47;5099605;28;20203;-74
2021/09/30 14:22:19;;;;;;;0.98;0.60;;;;;;;18.21;44.85;97162.66;5098838;28;20227;-73
2021/09/30 14:24:45;;;;;;;3.33;0.73;;;;;;;17.89;43.80;97152.69;5099600;28;20200;-73
2021/09/30 14:27:12;;;;;;;3.60;0.68;;;;;;;18.03;45.40;97150.91;5098197;28;20207;-73
2021/09/30 14:29:43;;;;;;;2.22;0.90;;;;;;;18.28;46.47;97157.34;5097915;28;20596;-73
2021/09/30 14:32:10;;;;;;;3.33;0.70;;;;;;;18.49;45.19;97158.81;5098101;28;20226;-73
2021/09/30 14:34:37;;;;;;;2.72;0.70;;;;;;;18.54;47.22;97158.22;5098818;28;20937;-73
2021/09/30 14:37:04;;;;;;;2.47;0.80;;;;;;;18.76;43.76;97157.00;5097716;28;20207;-73
2021/09/30 14:39:30;;;;;;;2.22;0.70;;;;;;;18.38;43.40;97159.44;5098721;28;20237;-73
2021/09/30 14:41:57;;;;;;;2.97;0.90;;;;;;;18.46;45.55;97155.75;5098408;28;20604;-73
2021/09/30 14:44:24;;;;;;;2.28;0.68;;;;;;;18.65;48.68;97158.44;5098255;28;20554;-73
2021/09/30 14:46:53;;;;;;;2.55;0.50;;;;;;;19.10;44.59;97154.97;5095083;28;20203;-73
2021/09/30 14:49:20;;;;;;;3.25;0.60;;;;;;;18.96;43.51;97162.16;5097726;28;20211;-73
2021/09/30 14:51:47;;;;;;;4.25;0.75;;;;;;;19.23;44.25;97149.59;5097725;28;20454;-73
2021/09/30 14:54:13;;;;;;;3.42;0.70;;;;;;;19.67;43.85;97153.19;5097973;28;20231;-74
2021/09/30 14:56:40;;;;;;;2.17;0.60;;;;;;;20.24;41.63;97145.97;5095658;28;20211;-73
2021/09/30 14:59:06;;;;;;;1.75;0.77;;;;;;;20.34;42.66;97146.28;5097954;28;20203;-73
2021/09/30 15:01:33;;;;;;;3.83;0.70;;;;;;;20.30;42.29;97155.78;5097963;28;20663;-74
2021/09/30 15:04:01;;;;;;;2.30;0.50;;;;;;;20.32;43.21;97148.38;5097781;28;20223;-74
2021/09/30 15:06:34;;;;;;;2.35;0.60;;;;;;;21.04;41.66;97147.66;5097048;28;20730;-74
2021/09/30 15:09:02;;;;;;;1.95;0.70;;;;;;;21.44;39.37;97147.03;5097659;28;20252;-71
2021/09/30 15:11:28;;;;;;;3.97;0.90;;;;;;;21.85;36.85;97139.19;5097443;28;20199;-72
2021/09/30 15:13:55;;;;;;;1.65;0.60;;;;;;;22.31;38.25;97137.59;5097231;28;20230;-74
2021/09/30 15:16:21;;;;;;;2.03;0.52;;;;;;;23.28;34.73;97141.44;5097165;28;20226;-72
2021/09/30 15:18:53;;;;;;;1.00;0.55;;;;;;;24.13;33.21;97136.03;5097492;28;20202;-72
2021/09/30 15:21:22;;;;;;;3.05;0.65;;;;;;;25.17;30.89;97131.78;5097698;28;20294;-72
2021/09/30 15:23:49;;;;;;;3.72;0.50;;;;;;;25.26;31.37;97136.50;5096963;28;20310;-72
2021/09/30 15:26:17;;;;;;;2.45;0.50;;;;;;;25.77;30.29;97138.91;5096542;28;20202;-72
2021/09/30 15:28:43;;;;;;;4.47;0.50;;;;;;;25.79;29.90;97136.75;5097058;28;20222;-72
2021/09/30 15:31:10;;;;;;;2.15;0.50;;;;;;;26.49;29.26;97131.97;5097911;28;20207;-72
2021/09/30 15:33:36;;;;;;;2.65;0.60;;;;;;;26.31;29.49;97136.06;5097244;28;20230;-72
2021/09/30 15:36:04;;;;;;;1.73;0.60;;;;;;;27.66;30.09;97133.53;5096270;28;20203;-72
2021/09/30 15:38:33;;;;;;;2.20;0.95;;;;;;;26.77;28.61;97141.69;5098055;28;20242;-72
2021/09/30 15:41:02;;;;;;;3.47;1.20;;;;;;;25.98;28.81;97130.78;5097427;28;20205;-72
2021/09/30 15:43:28;;;;;;;9.20;5.70;;;;;;;26.73;29.12;97132.47;5097366;28;20933;-73
2021/09/30 15:45:56;;;;;;;3.70;2.03;;;;;;;26.73;28.06;97141.44;5094214;28;20207;-72
2021/09/30 15:48:23;;;;;;;6.43;3.85;;;;;;;27.30;27.96;97132.47;5096973;28;20199;-72
2021/09/30 15:50:49;;;;;;;2.72;1.30;;;;;;;26.56;27.59;97134.47;5097072;28;20195;-72
2021/09/30 15:53:17;;;;;;;3.15;0.60;;;;;;;26.13;28.16;97131.81;5096914;28;20231;-72
2021/09/30 15:55:44;;;;;;;4.43;0.50;;;;;;;25.57;28.89;97133.19;5096355;28;20253;-72
2021/09/30 15:58:11;;;;;;;2.80;0.60;;;;;;;25.82;29.07;97125.47;5097110;28;20203;-72
2021/09/30 16:00:37;;;;;;;1.73;0.50;;;;;;;25.70;31.25;97127.41;5097654;28;20211;-72
2021/09/30 16:03:04;;;;;;;1.50;0.55;;;;;;;25.76;29.26;97137.25;5096950;28;20230;-72
2021/09/30 16:05:31;;;;;;;1.65;0.50;;;;;;;25.87;30.98;97126.34;5096352;28;20290;-72
2021/09/30 16:07:57;;;;;;;2.05;0.45;;;;;;;26.05;31.40;97123.31;5097063;28;20210;-73
2021/09/30 16:10:24;;;;;;;1.63;0.45;;;;;;;26.26;30.65;97125.19;5097289;28;20199;-72
2021/09/30 16:12:51;;;;;;;1.30;0.60;;;;;;;25.50;32.14;97116.34;5097023;28;20231;-72
2021/09/30 16:15:18;;;;;;;5.15;0.70;;;;;;;26.02;32.11;97111.13;5096675;28;20195;-72
2021/09/30 16:17:44;;;;;;;2.72;0.40;;;;;;;24.83;34.58;97113.91;5096601;28;20289;-72
2021/09/30 16:20:11;;;;;;;1.27;0.50;;;;;;;23.80;36.29;97114.34;5097251;28;20214;-72
2021/09/30 16:22:38;;;;;;;1.92;0.30;;;;;;;22.93;39.57;97118.22;5096037;28;20222;-72
2021/09/30 16:25:07;;;;;;;2.65;0.70;;;;;;;21.01;43.80;97112.44;5096297;28;20226;-71
2021/09/30 16:27:34;;;;;;;2.88;0.55;;;;;;;19.81;46.87;97120.81;5096116;28;20199;-72
2021/09/30 16:30:03;;;;;;;1.85;0.60;;;;;;;19.13;48.72;97117.13;5094474;28;20257;-72
2021/09/30 16:32:30;;;;;;;5.90;0.50;;;;;;;18.33;51.45;97121.84;5092940;28;20215;-71
2021/09/30 16:34:57;;;;;;;1.05;0.60;;;;;;;17.81;53.81;97120.88;5096241;28;20210;-72
2021/09/30 16:37:23;;;;;;;2.22;0.47;;;;;;;17.21;56.36;97114.63;5094905;28;20199;-72
2021/09/30 16:39:50;;;;;;;1.50;0.57;;;;;;;17.33;56.21;97113.09;5095742;28;20203;-71
2021/09/30 16:42:16;;;;;;;1.75;0.70;;;;;;;17.00;59.07;97121.06;5095576;28;20230;-71